HZA42 WIII-OEJN
Flight info
| Callsign | HZA42 |
|---|---|
| Flight time | N/A |
| Altitude | 38000 |
| Route | RIMTI M766 KAT P570 TVM UL425 ENPOL/N0468F400 UL425 ASPUX DCT GOBRO/N0439F280 L425 AMBIT/N0470F400 L425 BOSUT |
| Aircraft | A346/H-SDE2E3FGHIJ3J4J5M1RWXY/LB1D1 |
Departure
| Time | 2026-05-06 21:28 |
|---|---|
| Airport | Soekarno-Hatta International Airport (WIII) |
Arrival
| Time | N/A |
|---|---|
| Airport | King Abdulaziz International Airport (OEJN) |
| Time | Latitude | Longitude | Altitude | Speed | Heading |
|---|---|---|---|---|---|
| 2026-05-06 21:07 | -6.13307 | 106.65032 | 46 ft | 0 kts | 339° |
| 2026-05-06 21:18 | -6.13313 | 106.65034 | 44 ft | 2 kts | 335° |
| 2026-05-06 21:19 | -6.13325 | 106.65040 | 42 ft | 2 kts | 339° |
| 2026-05-06 21:19 | -6.13339 | 106.65044 | 43 ft | 3 kts | 1° |
| 2026-05-06 21:19 | -6.13347 | 106.65043 | 41 ft | 3 kts | 36° |
| 2026-05-06 21:19 | -6.13350 | 106.65039 | 42 ft | 3 kts | 72° |
| 2026-05-06 21:20 | -6.13354 | 106.65020 | 44 ft | 3 kts | 79° |
| 2026-05-06 21:20 | -6.13359 | 106.65000 | 42 ft | 3 kts | 73° |
| 2026-05-06 21:20 | -6.13363 | 106.64989 | 43 ft | 0 kts | 68° |
| 2026-05-06 21:22 | -6.13362 | 106.64991 | 43 ft | 1 kts | 68° |
| 2026-05-06 21:22 | -6.13360 | 106.64996 | 43 ft | 2 kts | 68° |
| 2026-05-06 21:23 | -6.13352 | 106.65017 | 43 ft | 4 kts | 68° |
| 2026-05-06 21:23 | -6.13336 | 106.65055 | 45 ft | 7 kts | 68° |
| 2026-05-06 21:23 | -6.13314 | 106.65110 | 46 ft | 10 kts | 68° |
| 2026-05-06 21:23 | -6.13325 | 106.65180 | 46 ft | 12 kts | 131° |
| 2026-05-06 21:24 | -6.13399 | 106.65227 | 46 ft | 14 kts | 156° |
| 2026-05-06 21:24 | -6.13492 | 106.65264 | 46 ft | 15 kts | 160° |
| 2026-05-06 21:24 | -6.13593 | 106.65304 | 47 ft | 16 kts | 158° |
| 2026-05-06 21:24 | -6.13690 | 106.65281 | 47 ft | 17 kts | 238° |
| 2026-05-06 21:25 | -6.13740 | 106.65166 | 47 ft | 19 kts | 248° |
| 2026-05-06 21:25 | -6.13791 | 106.65037 | 47 ft | 21 kts | 248° |
| 2026-05-06 21:25 | -6.13848 | 106.64894 | 47 ft | 23 kts | 248° |
| 2026-05-06 21:25 | -6.13910 | 106.64742 | 47 ft | 24 kts | 248° |
| 2026-05-06 21:26 | -6.13974 | 106.64580 | 47 ft | 25 kts | 248° |
| 2026-05-06 21:26 | -6.14042 | 106.64411 | 47 ft | 26 kts | 248° |
| 2026-05-06 21:26 | -6.14095 | 106.64319 | 48 ft | 13 kts | 212° |
| 2026-05-06 21:26 | -6.14179 | 106.64326 | 49 ft | 13 kts | 137° |
| 2026-05-06 21:27 | -6.14215 | 106.64413 | 49 ft | 15 kts | 96° |
| 2026-05-06 21:27 | -6.14189 | 106.64526 | 47 ft | 23 kts | 68° |
| 2026-05-06 21:27 | -6.14045 | 106.64886 | 47 ft | 89 kts | 68° |
| 2026-05-06 21:27 | -6.13734 | 106.65664 | 47 ft | 148 kts | 68° |
| 2026-05-06 21:28 | -6.13283 | 106.66787 | 66 ft | 194 kts | 69° |
| 2026-05-06 21:28 | -6.12745 | 106.68074 | 626 ft | 202 kts | 69° |
| 2026-05-06 21:28 | -6.12224 | 106.69380 | 1368 ft | 201 kts | 70° |
| 2026-05-06 21:28 | -6.11692 | 106.70717 | 1808 ft | 212 kts | 69° |
| 2026-05-06 21:29 | -6.11190 | 106.72161 | 2209 ft | 223 kts | 83° |
| 2026-05-06 21:29 | -6.11379 | 106.73700 | 2836 ft | 224 kts | 114° |
| 2026-05-06 21:29 | -6.12333 | 106.74924 | 3538 ft | 226 kts | 140° |
| 2026-05-06 21:29 | -6.13673 | 106.75737 | 4150 ft | 232 kts | 153° |
| 2026-05-06 21:30 | -6.15212 | 106.76298 | 4718 ft | 238 kts | 161° |
| 2026-05-06 21:30 | -6.16878 | 106.76436 | 5271 ft | 248 kts | 191° |
| 2026-05-06 21:30 | -6.18433 | 106.75672 | 5877 ft | 254 kts | 219° |
| 2026-05-06 21:30 | -6.19556 | 106.74298 | 6498 ft | 257 kts | 244° |
| 2026-05-06 21:31 | -6.20032 | 106.72562 | 7112 ft | 258 kts | 263° |
| 2026-05-06 21:31 | -6.20214 | 106.70757 | 7721 ft | 261 kts | 265° |
| 2026-05-06 21:31 | -6.20418 | 106.68933 | 8325 ft | 264 kts | 260° |
| 2026-05-06 21:31 | -6.20619 | 106.67065 | 8728 ft | 276 kts | 276° |
| 2026-05-06 21:32 | -6.20108 | 106.65161 | 9041 ft | 290 kts | 294° |
| 2026-05-06 21:32 | -6.18417 | 106.61346 | 10023 ft | 305 kts | 294° |
| 2026-05-06 21:32 | -6.17580 | 106.59349 | 10495 ft | 314 kts | 293° |
| 2026-05-06 21:33 | -6.16746 | 106.57251 | 10769 ft | 330 kts | 292° |
| 2026-05-06 21:33 | -6.15902 | 106.55051 | 11028 ft | 345 kts | 291° |
| 2026-05-06 21:33 | -6.15034 | 106.52743 | 11281 ft | 360 kts | 291° |
| 2026-05-06 21:33 | -6.14133 | 106.50328 | 11527 ft | 375 kts | 291° |
| 2026-05-06 21:34 | -6.13203 | 106.47827 | 11783 ft | 389 kts | 291° |
| 2026-05-06 21:34 | -6.12238 | 106.45231 | 12059 ft | 402 kts | 291° |
| 2026-05-06 21:34 | -6.11263 | 106.42605 | 12541 ft | 407 kts | 291° |
| 2026-05-06 21:34 | -6.10263 | 106.39920 | 13121 ft | 410 kts | 291° |
| 2026-05-06 21:35 | -6.09055 | 106.37298 | 13661 ft | 414 kts | 300° |
| 2026-05-06 21:35 | -6.07480 | 106.34865 | 14142 ft | 416 kts | 308° |
| 2026-05-06 21:35 | -6.05606 | 106.32636 | 14649 ft | 418 kts | 313° |
| 2026-05-06 21:35 | -6.03629 | 106.30467 | 15173 ft | 421 kts | 314° |
| 2026-05-06 21:36 | -6.01629 | 106.28298 | 15687 ft | 424 kts | 314° |
| 2026-05-06 21:36 | -5.99622 | 106.26114 | 16181 ft | 426 kts | 314° |
| 2026-05-06 21:36 | -5.97636 | 106.23940 | 16677 ft | 429 kts | 314° |
| 2026-05-06 21:36 | -5.95610 | 106.21715 | 17159 ft | 432 kts | 314° |
| 2026-05-06 21:37 | -5.93578 | 106.19476 | 17655 ft | 435 kts | 313° |
| 2026-05-06 21:37 | -5.91533 | 106.17221 | 18136 ft | 437 kts | 313° |
| 2026-05-06 21:37 | -5.89474 | 106.14950 | 18542 ft | 440 kts | 313° |
| 2026-05-06 21:37 | -5.87401 | 106.12663 | 18957 ft | 443 kts | 313° |
| 2026-05-06 21:38 | -5.85323 | 106.10372 | 19370 ft | 445 kts | 313° |
| 2026-05-06 21:38 | -5.83233 | 106.08067 | 19767 ft | 447 kts | 313° |
| 2026-05-06 21:38 | -5.81125 | 106.05740 | 20115 ft | 449 kts | 313° |
| 2026-05-06 21:38 | -5.79030 | 106.03429 | 20445 ft | 453 kts | 313° |
| 2026-05-06 21:39 | -5.78683 | 106.03045 | 20511 ft | 453 kts | 313° |